Terminal Aerodrome Forecast
Issued by NWS

Home | Current Version | Previous Version | Text Only | Print | Product List | Glossary On
Versions: 1 2 3 4 5 6 7 8 9 10 11 12 13 14
000
FTPA31 PHFO 240540
TAFSTU
TAF
NSTU 240540Z 2406/2506 04010KT P6SM -SHRA SCT015 BKN040 OVC100
     FM241000 36005KT P6SM VCSH SCT015 BKN040 BKN100
     FM242100 06010KT P6SM VCSH SCT015 BKN040 BKN100=

USA.gov is the U.S. government's official web portal to all federal, state and local government web resources and services.